RPUK weather

Calapan Airport
Calapan City, Mindoro Oriental Province, Philippines

Public forecast

Using degrees Celsius for public forecast. Weather courtesy of forecast.io.

METAR (pilot weather report)

Closest report is Ninoy Aquino International Airport, 66.1 nm (122.3 km) N. Retrieved 2019/03/26 09:00 UTC (52 minutes ago):

RPLL 260900Z 11012KT 9999 SCT023 OVC090 30/21 Q1012 NOSIG RMK A2988

TAF (pilot weather forecast)

Closest forecast is Ninoy Aquino International Airport, 66.1 nm (122.3 km) N. Retrieved 2019/03/26 06:00 UTC (4 hours ago):

TAF RPLL 260500Z 2606/2712 10008KT 9999 FEW025 TX35/2606Z TN26/2621Z TEMPO 2606/2612 11014KT FEW025 BKN100 TEMPO 2612/2618 12010KT SCT025